createdAt,value
2022-08-17T00:00:51.865Z,10.32
2022-08-17T00:06:13.666Z,9.63
2022-08-17T00:11:22.298Z,10.52
2022-08-17T00:16:50.415Z,11.93
2022-08-17T00:22:32.107Z,12.57
2022-08-17T00:27:18.678Z,13.32
2022-08-17T00:33:11.876Z,10.15
2022-08-17T00:37:42.136Z,11.20
2022-08-17T00:42:45.612Z,11.82
2022-08-17T00:47:47.657Z,10.52
2022-08-17T00:52:56.263Z,11.57
2022-08-17T00:58:01.598Z,9.80
2022-08-17T01:03:15.119Z,10.80
2022-08-17T01:08:19.649Z,10.55
2022-08-17T01:13:21.967Z,11.18
2022-08-17T01:18:24.153Z,11.73
2022-08-17T01:23:28.462Z,10.40
2022-08-17T01:28:52.799Z,10.80
2022-08-17T01:33:54.443Z,11.05
2022-08-17T01:38:56.139Z,11.63
2022-08-17T01:44:02.703Z,10.77
2022-08-17T01:49:09.913Z,15.52
2022-08-17T01:54:14.817Z,10.82
2022-08-17T01:59:19.797Z,11.52
2022-08-17T02:04:21.747Z,13.07
2022-08-17T02:09:29.505Z,12.43
2022-08-17T02:14:31.425Z,11.95
2022-08-17T02:19:32.979Z,11.68
2022-08-17T02:24:59.869Z,14.65
2022-08-17T02:29:58.312Z,11.90
2022-08-17T02:35:00.426Z,11.38
2022-08-17T02:40:02.717Z,13.43
2022-08-17T02:45:07.958Z,14.52
2022-08-17T02:50:12.130Z,15.93
2022-08-17T02:55:24.022Z,13.02
2022-08-17T03:00:29.948Z,13.52
2022-08-17T03:05:33.696Z,12.80
2022-08-17T03:10:35.168Z,13.85
2022-08-17T03:15:36.686Z,13.25
2022-08-17T03:20:42.292Z,19.95
2022-08-17T03:25:46.315Z,16.75
2022-08-17T03:30:47.789Z,15.40
2022-08-17T03:35:49.404Z,13.68
2022-08-17T03:40:56.488Z,14.25
2022-08-17T03:46:33.800Z,18.20
2022-08-17T03:51:55.618Z,13.07
2022-08-17T03:57:09.743Z,15.20
2022-08-17T04:02:18.773Z,14.10
2022-08-17T04:07:21.899Z,14.68
2022-08-17T04:12:24.325Z,13.18
2022-08-17T04:17:28.729Z,12.45
2022-08-17T04:22:34.238Z,10.95
2022-08-17T04:27:36.218Z,10.93
2022-08-17T04:33:06.143Z,13.57
2022-08-17T04:38:11.873Z,18.48
2022-08-17T04:43:16.483Z,11.10
2022-08-17T04:48:20.754Z,16.05
2022-08-17T04:53:22.203Z,13.88
2022-08-17T04:58:23.667Z,12.68
2022-08-17T05:03:25.093Z,14.18
2022-08-17T05:08:26.684Z,14.48
2022-08-17T05:13:32.234Z,14.90
2022-08-17T05:18:33.709Z,13.52
2022-08-17T05:23:43.013Z,14.70
2022-08-17T05:28:45.037Z,15.48
2022-08-17T05:33:47.557Z,14.77
2022-08-17T05:38:49.012Z,17.40
2022-08-17T05:43:54.377Z,24.60
2022-08-17T05:49:03.505Z,23.65
2022-08-17T05:54:56.744Z,24.73
2022-08-17T06:00:04.539Z,12.38
2022-08-17T06:05:17.273Z,16.77
2022-08-17T06:10:43.883Z,13.60
2022-08-17T06:15:59.483Z,15.98
2022-08-17T06:21:05.612Z,11.82
2022-08-17T06:26:17.459Z,9.95
2022-08-17T06:31:23.323Z,15.10
2022-08-17T06:36:33.927Z,10.25
2022-08-17T06:42:54.084Z,14.95
2022-08-17T06:47:59.498Z,14.07
2022-08-17T06:53:25.758Z,16.87
2022-08-17T06:58:31.817Z,10.50
2022-08-17T07:03:42.401Z,10.05
2022-08-17T07:09:01.047Z,10.80
2022-08-17T07:14:31.215Z,11.07
2022-08-17T07:19:35.046Z,9.57
2022-08-17T07:24:59.553Z,9.75
2022-08-17T07:30:16.075Z,7.47
2022-08-17T07:35:37.602Z,12.45
2022-08-17T07:40:57.993Z,11.93
2022-08-17T07:46:21.653Z,7.35
2022-08-17T07:51:27.703Z,9.13
2022-08-17T07:56:55.761Z,10.77
2022-08-17T08:02:06.655Z,13.38
2022-08-17T08:07:14.059Z,9.20
2022-08-17T08:12:27.174Z,15.55
2022-08-17T08:17:46.439Z,11.38
2022-08-17T08:23:15.473Z,12.13
2022-08-17T08:28:35.139Z,13.75
2022-08-17T08:33:49.195Z,15.13
2022-08-17T08:39:02.875Z,13.88
2022-08-17T08:44:16.217Z,15.98
2022-08-17T08:50:01.917Z,15.20
2022-08-17T08:55:12.319Z,17.73
2022-08-17T09:00:18.977Z,13.88
2022-08-17T09:05:23.074Z,15.18
2022-08-17T09:10:30.687Z,18.65
2022-08-17T09:15:42.565Z,16.58
2022-08-17T09:21:10.001Z,15.35
2022-08-17T09:26:22.800Z,17.08
2022-08-17T09:31:47.043Z,15.90
2022-08-17T09:37:20.520Z,17.45
2022-08-17T09:42:48.271Z,19.13
2022-08-17T09:48:27.498Z,15.63
2022-08-17T09:53:32.013Z,23.08
2022-08-17T09:58:50.367Z,18.73
2022-08-17T10:03:59.343Z,16.23
2022-08-17T10:09:09.668Z,19.60
2022-08-17T10:14:37.517Z,17.67
2022-08-17T10:19:58.636Z,18.40
2022-08-17T10:25:24.876Z,17.63
2022-08-17T10:30:35.584Z,19.63
2022-08-17T10:36:10.160Z,19.05
2022-08-17T10:41:19.641Z,19.48
2022-08-17T10:46:46.962Z,20.90
2022-08-17T10:51:55.066Z,25.38
2022-08-17T10:56:57.376Z,27.40
2022-08-17T11:02:12.281Z,26.17
2022-08-17T11:07:43.678Z,26.77
2022-08-17T11:13:11.458Z,32.63
2022-08-17T11:18:37.534Z,28.27
2022-08-17T11:23:50.819Z,29.45
2022-08-17T11:28:58.696Z,31.17
2022-08-17T11:34:07.657Z,29.92
2022-08-17T11:39:35.648Z,38.13
2022-08-17T11:44:53.520Z,35.58
2022-08-17T11:50:59.486Z,38.47
2022-08-17T11:56:05.225Z,37.80
2022-08-17T12:01:09.723Z,39.55
2022-08-17T12:06:31.176Z,40.13
2022-08-17T12:12:13.224Z,47.33
2022-08-17T12:17:40.794Z,44.17
2022-08-17T12:22:56.370Z,42.97
2022-08-17T12:28:06.753Z,42.90
2022-08-17T12:33:13.784Z,46.08
2022-08-17T12:43:35.070Z,42.97
2022-08-17T12:48:37.052Z,46.22
2022-08-17T12:53:40.765Z,46.85
2022-08-17T12:58:54.057Z,45.22
2022-08-17T13:03:59.632Z,43.22
2022-08-17T13:09:18.411Z,47.65
2022-08-17T13:14:19.946Z,48.30
2022-08-17T13:19:40.139Z,42.22
2022-08-17T13:24:53.000Z,39.10
2022-08-17T13:29:59.527Z,42.47
2022-08-17T13:35:14.381Z,41.58
2022-08-17T13:40:19.094Z,39.35
2022-08-17T13:45:50.481Z,49.25
2022-08-17T13:50:55.420Z,42.50
2022-08-17T13:56:07.302Z,38.30
2022-08-17T14:01:54.346Z,43.08
2022-08-17T14:07:12.410Z,39.13
2022-08-17T14:12:18.161Z,43.58
2022-08-17T14:17:20.053Z,47.05
2022-08-17T14:22:28.850Z,49.60
2022-08-17T14:27:33.990Z,50.97
2022-08-17T14:32:45.192Z,49.45
2022-08-17T14:37:47.946Z,47.72
2022-08-17T14:42:49.786Z,47.75
2022-08-17T14:47:51.475Z,49.00
2022-08-17T14:52:55.104Z,50.65
2022-08-17T14:57:57.145Z,50.30
2022-08-17T15:03:00.267Z,45.80
2022-08-17T15:08:02.955Z,44.08
2022-08-17T15:13:10.312Z,45.13
2022-08-17T15:18:12.042Z,44.55
2022-08-17T15:23:15.696Z,40.53
2022-08-17T15:28:17.271Z,50.38
2022-08-17T15:33:22.007Z,41.60
2022-08-17T15:38:23.861Z,81.97
2022-08-17T15:43:28.428Z,40.63
2022-08-17T15:48:44.578Z,47.45
2022-08-17T15:53:49.343Z,39.97
2022-08-17T15:58:52.331Z,37.50
2022-08-17T16:04:05.229Z,29.98
2022-08-17T16:09:19.493Z,29.33
2022-08-17T16:14:20.942Z,26.73
2022-08-17T16:19:22.442Z,25.85
2022-08-17T16:24:23.880Z,23.05
2022-08-17T16:29:25.380Z,26.67
2022-08-17T16:34:26.815Z,33.60
2022-08-17T16:39:29.197Z,40.33
2022-08-17T16:44:32.098Z,39.83
2022-08-17T16:49:36.785Z,38.80
2022-08-17T16:54:44.200Z,35.28
2022-08-17T16:59:50.122Z,40.55
2022-08-17T17:04:59.985Z,35.60
2022-08-17T17:10:09.037Z,37.28
2022-08-17T17:15:10.835Z,40.83
2022-08-17T17:20:16.661Z,38.03
2022-08-17T17:26:02.967Z,39.75
2022-08-17T17:31:23.710Z,40.20
2022-08-17T17:36:50.102Z,35.70
2022-08-17T17:41:58.877Z,40.50
2022-08-17T17:47:02.595Z,36.55
2022-08-17T17:52:13.341Z,39.97
2022-08-17T17:57:29.510Z,38.67
2022-08-17T18:03:04.400Z,37.78
2022-08-17T18:08:34.766Z,37.90
2022-08-17T18:18:40.044Z,28.50
2022-08-17T18:24:02.544Z,26.95
2022-08-17T18:29:30.098Z,28.42
2022-08-17T18:34:48.528Z,27.80
2022-08-17T18:39:50.425Z,28.73
2022-08-17T18:44:55.257Z,32.30
2022-08-17T18:50:16.845Z,29.92
2022-08-17T18:55:22.752Z,26.42
2022-08-17T19:00:30.150Z,30.17
2022-08-17T19:05:37.694Z,28.52
2022-08-17T19:10:47.044Z,27.85
2022-08-17T19:16:11.454Z,24.98
2022-08-17T19:21:23.052Z,25.00
2022-08-17T19:26:54.502Z,26.80
2022-08-17T19:31:58.380Z,28.70
2022-08-17T19:37:30.322Z,29.83
2022-08-17T19:42:49.767Z,31.42
2022-08-17T19:48:13.560Z,29.00
2022-08-17T19:53:19.513Z,29.42
2022-08-17T19:58:46.351Z,30.90
2022-08-17T20:04:07.570Z,29.60
2022-08-17T20:09:24.965Z,33.15
2022-08-17T20:14:55.408Z,33.83
2022-08-17T20:20:19.731Z,35.67
2022-08-17T20:25:30.080Z,36.40
2022-08-17T20:30:38.458Z,38.13
2022-08-17T20:35:59.656Z,38.63
2022-08-17T20:41:04.067Z,39.33
2022-08-17T20:46:36.146Z,45.95
2022-08-17T20:52:01.184Z,45.55
2022-08-17T20:57:09.276Z,45.85
2022-08-17T21:02:20.764Z,45.40
2022-08-17T21:07:24.482Z,46.35
2022-08-17T21:12:42.465Z,45.70
2022-08-17T21:17:53.931Z,47.83
2022-08-17T21:23:23.206Z,44.72
2022-08-17T21:29:00.431Z,48.30
2022-08-17T21:34:15.165Z,47.20
2022-08-17T21:39:23.329Z,49.33
2022-08-17T21:44:41.577Z,52.63
2022-08-17T21:49:43.501Z,51.80
2022-08-17T21:54:54.871Z,53.95
2022-08-17T21:59:58.576Z,52.80
2022-08-17T22:05:04.861Z,50.60
2022-08-17T22:10:27.034Z,55.45
2022-08-17T22:15:28.526Z,55.33
2022-08-17T22:20:30.003Z,54.10
2022-08-17T22:25:35.820Z,56.20
2022-08-17T22:31:01.504Z,57.25
2022-08-17T22:36:22.630Z,54.90
2022-08-17T22:42:06.266Z,56.72
2022-08-17T22:47:29.252Z,58.75
2022-08-17T22:52:56.651Z,59.72
2022-08-17T22:58:17.163Z,60.92
2022-08-17T23:03:22.161Z,58.67
2022-08-17T23:08:24.071Z,62.13
2022-08-17T23:13:26.446Z,61.25
2022-08-17T23:18:27.861Z,59.97
2022-08-17T23:23:29.334Z,63.03
2022-08-17T23:28:30.742Z,57.97
2022-08-17T23:33:38.508Z,57.35
2022-08-17T23:38:40.119Z,59.22
2022-08-17T23:43:45.088Z,60.05
2022-08-17T23:48:47.548Z,57.13
2022-08-17T23:53:55.153Z,61.67
2022-08-17T23:58:57.954Z,62.17
